createdAt,value
2023-01-15T00:00:08.227Z,6.85
2023-01-15T00:01:08.028Z,6.91
2023-01-15T00:02:08.380Z,6.85
2023-01-15T00:03:08.123Z,6.86
2023-01-15T00:04:08.468Z,6.95
2023-01-15T00:05:08.452Z,6.95
2023-01-15T00:06:08.338Z,6.88
2023-01-15T00:07:08.301Z,6.94
2023-01-15T00:08:08.352Z,6.94
2023-01-15T00:09:08.301Z,6.88
2023-01-15T00:10:08.018Z,6.95
2023-01-15T00:11:08.256Z,7
2023-01-15T00:12:08.253Z,7.01
2023-01-15T00:13:07.970Z,7.01
2023-01-15T00:14:08.203Z,7
2023-01-15T00:15:08.923Z,6.97
2023-01-15T00:16:09.594Z,7
2023-01-15T00:17:09.152Z,7.03
2023-01-15T00:18:08.627Z,7.05
2023-01-15T00:19:09.039Z,7.01
2023-01-15T00:20:08.852Z,7.12
2023-01-15T00:21:08.850Z,7.12
2023-01-15T00:22:08.827Z,7.12
2023-01-15T00:23:09.064Z,7.04
2023-01-15T00:24:09.061Z,7.15
2023-01-15T00:25:09.029Z,7.18
2023-01-15T00:26:08.758Z,7.15
2023-01-15T00:27:08.757Z,7.16
2023-01-15T00:28:08.502Z,7.12
2023-01-15T00:29:08.734Z,7.21
2023-01-15T00:30:08.986Z,7.18
2023-01-15T00:31:08.528Z,7.19
2023-01-15T00:32:08.696Z,7.21
2023-01-15T00:33:08.642Z,7.16
2023-01-15T00:34:08.895Z,7.12
2023-01-15T00:35:08.893Z,7.18
2023-01-15T00:36:08.994Z,7.16
2023-01-15T00:37:08.876Z,7.18
2023-01-15T00:38:08.587Z,7.11
2023-01-15T00:39:08.305Z,7.21
2023-01-15T00:40:08.816Z,7.21
2023-01-15T00:41:08.535Z,7.26
2023-01-15T00:42:08.825Z,7.23
2023-01-15T00:43:08.544Z,7.18
2023-01-15T00:44:08.539Z,7.23
2023-01-15T00:45:09.282Z,7.23
2023-01-15T00:46:08.608Z,7.21
2023-01-15T00:47:08.225Z,7.23
2023-01-15T00:48:08.731Z,7.21
2023-01-15T00:49:08.151Z,7.21
2023-01-15T00:50:08.414Z,7.22
2023-01-15T00:51:08.373Z,7.27
2023-01-15T00:52:08.376Z,7.27
2023-01-15T00:53:08.591Z,7.23
2023-01-15T00:54:08.590Z,7.23
2023-01-15T00:55:08.596Z,7.23
2023-01-15T00:56:08.311Z,7.27
2023-01-15T00:57:08.315Z,7.29
2023-01-15T00:58:08.520Z,7.34
2023-01-15T00:59:08.025Z,7.34
2023-01-15T01:00:08.502Z,7.37
2023-01-15T01:01:08.915Z,7.37
2023-01-15T01:02:08.360Z,7.41
2023-01-15T01:03:08.462Z,7.34
2023-01-15T01:04:08.461Z,7.36
2023-01-15T01:05:08.439Z,7.29
2023-01-15T01:06:08.406Z,7.37
2023-01-15T01:07:08.137Z,7.37
2023-01-15T01:08:08.132Z,7.19
2023-01-15T01:09:08.381Z,7.23
2023-01-15T01:10:08.080Z,7.23
2023-01-15T01:11:08.090Z,7.22
2023-01-15T01:12:08.074Z,7.22
2023-01-15T01:13:07.793Z,7.21
2023-01-15T01:14:08.315Z,7.26
2023-01-15T01:15:08.277Z,7.18
2023-01-15T01:16:08.323Z,7.22
2023-01-15T01:17:08.260Z,7.19
2023-01-15T01:18:07.729Z,7.22
2023-01-15T01:19:08.226Z,7.22
2023-01-15T01:20:07.945Z,7.26
2023-01-15T01:21:08.178Z,7.22
2023-01-15T01:22:07.935Z,7.23
2023-01-15T01:23:07.957Z,7.22
2023-01-15T01:24:08.167Z,7.22
2023-01-15T01:25:07.882Z,7.27
2023-01-15T01:26:07.582Z,7.27
2023-01-15T01:27:07.821Z,7.29
2023-01-15T01:28:07.838Z,7.21
2023-01-15T01:29:08.121Z,7.19
2023-01-15T01:30:07.817Z,7.27
2023-01-15T01:31:07.955Z,7.26
2023-01-15T01:32:08.024Z,7.21
2023-01-15T01:33:07.745Z,7.27
2023-01-15T01:35:07.974Z,7.26
2023-01-15T01:36:08.004Z,7.23
2023-01-15T01:37:07.950Z,7.21
2023-01-15T01:38:07.928Z,7.27
2023-01-15T01:39:07.931Z,7.19
2023-01-15T01:40:07.913Z,7.23
2023-01-15T01:41:07.628Z,7.23
2023-01-15T01:42:07.598Z,7.16
2023-01-15T01:43:07.589Z,7.23
2023-01-15T01:44:07.576Z,7.12
2023-01-15T01:45:07.562Z,7.26
2023-01-15T01:46:07.918Z,7.15
2023-01-15T01:47:07.544Z,7.15
2023-01-15T01:48:07.785Z,7.13
2023-01-15T01:49:07.825Z,7.26
2023-01-15T01:50:07.757Z,7.18
2023-01-15T01:51:07.474Z,7.27
2023-01-15T01:52:07.456Z,7.22
2023-01-15T01:53:07.438Z,7.23
2023-01-15T01:54:07.177Z,7.27
2023-01-15T01:55:07.415Z,7.23
2023-01-15T01:56:07.662Z,7.26
2023-01-15T01:57:07.412Z,7.19
2023-01-15T01:58:07.626Z,7.22
2023-01-15T01:59:07.365Z,7.27
2023-01-15T02:00:07.391Z,7.21
2023-01-15T02:01:07.773Z,7.29
2023-01-15T02:02:07.884Z,7.3
2023-01-15T02:03:07.062Z,7.26
2023-01-15T02:04:07.298Z,7.23
2023-01-15T02:05:07.286Z,7.33
2023-01-15T02:06:07.241Z,7.23
2023-01-15T02:07:07.494Z,7.27
2023-01-15T02:08:07.486Z,7.39
2023-01-15T02:09:07.463Z,7.34
2023-01-15T02:10:07.516Z,7.34
2023-01-15T02:11:07.429Z,7.36
2023-01-15T02:12:07.471Z,7.29
2023-01-15T02:13:07.437Z,7.31
2023-01-15T02:14:07.392Z,7.34
2023-01-15T02:15:07.391Z,7.34
2023-01-15T02:16:07.305Z,7.4
2023-01-15T02:17:07.086Z,7.39
2023-01-15T02:18:07.322Z,7.34
2023-01-15T02:19:07.325Z,7.4
2023-01-15T02:20:07.277Z,7.48
2023-01-15T02:21:07.270Z,7.39
2023-01-15T02:22:07.287Z,7.4
2023-01-15T02:23:06.991Z,7.44
2023-01-15T02:24:08.029Z,7.45
2023-01-15T02:25:06.964Z,7.47
2023-01-15T02:26:06.944Z,7.49
2023-01-15T02:27:07.185Z,7.51
2023-01-15T02:28:07.197Z,7.45
2023-01-15T02:29:06.906Z,7.45
2023-01-15T02:30:06.922Z,7.48
2023-01-15T02:31:07.130Z,7.54
2023-01-15T02:32:06.868Z,7.61
2023-01-15T02:33:06.854Z,7.48
2023-01-15T02:34:06.638Z,7.49
2023-01-15T02:35:07.050Z,7.45
2023-01-15T02:36:07.045Z,7.45
2023-01-15T02:37:07.034Z,7.51
2023-01-15T02:38:07.016Z,7.56
2023-01-15T02:39:06.991Z,7.58
2023-01-15T02:40:06.982Z,7.61
2023-01-15T02:41:07.004Z,7.67
2023-01-15T02:42:06.995Z,7.63
2023-01-15T02:43:06.689Z,7.71
2023-01-15T02:44:06.932Z,7.71
2023-01-15T02:45:06.934Z,7.78
2023-01-15T02:46:06.981Z,7.77
2023-01-15T02:47:06.882Z,7.75
2023-01-15T02:48:06.866Z,7.75
2023-01-15T02:49:06.854Z,7.78
2023-01-15T02:50:06.595Z,7.75
2023-01-15T02:51:06.818Z,7.78
2023-01-15T02:52:06.826Z,7.88
2023-01-15T02:53:06.799Z,7.86
2023-01-15T02:54:06.790Z,7.86
2023-01-15T02:55:06.780Z,7.83
2023-01-15T02:56:07.539Z,7.83
2023-01-15T02:57:07.276Z,7.8
2023-01-15T02:58:06.995Z,7.82
2023-01-15T02:59:07.269Z,7.8
2023-01-15T03:00:07.486Z,7.78
2023-01-15T03:01:07.524Z,7.77
2023-01-15T03:02:07.823Z,7.82
2023-01-15T03:03:07.435Z,7.8
2023-01-15T03:04:07.167Z,7.78
2023-01-15T03:05:07.403Z,7.8
2023-01-15T03:06:07.383Z,7.8
2023-01-15T03:07:07.120Z,7.82
2023-01-15T03:08:07.363Z,7.83
2023-01-15T03:09:06.817Z,7.75
2023-01-15T03:10:07.333Z,7.83
2023-01-15T03:11:07.318Z,7.82
2023-01-15T03:12:07.064Z,7.83
2023-01-15T03:13:07.037Z,7.78
2023-01-15T03:14:07.002Z,7.77
2023-01-15T03:15:07.003Z,7.78
2023-01-15T03:16:07.269Z,7.8
2023-01-15T03:17:06.707Z,7.78
2023-01-15T03:18:07.209Z,7.77
2023-01-15T03:19:06.940Z,7.75
2023-01-15T03:20:07.183Z,7.71
2023-01-15T03:21:06.644Z,7.78
2023-01-15T03:22:06.887Z,7.77
2023-01-15T03:23:06.883Z,7.75
2023-01-15T03:24:07.118Z,7.73
2023-01-15T03:25:07.110Z,7.77
2023-01-15T03:26:06.843Z,7.82
2023-01-15T03:27:07.109Z,7.74
2023-01-15T03:28:07.077Z,7.78
2023-01-15T03:29:06.783Z,7.83
2023-01-15T03:30:07.061Z,7.75
2023-01-15T03:31:07.272Z,7.78
2023-01-15T03:32:07.008Z,7.85
2023-01-15T03:33:06.977Z,7.78
2023-01-15T03:49:59.103Z,7.86
2023-01-15T03:50:58.819Z,7.83
2023-01-15T03:51:58.794Z,7.8
2023-01-15T03:52:59.025Z,7.78
2023-01-15T03:53:58.887Z,7.8
2023-01-15T03:54:58.720Z,7.77
2023-01-15T03:55:58.777Z,7.86
2023-01-15T03:56:58.956Z,7.8
2023-01-15T03:57:58.972Z,7.85
2023-01-15T03:58:58.922Z,7.77
2023-01-15T03:59:58.644Z,7.83
2023-01-15T04:00:58.818Z,7.77
2023-01-15T04:01:59.386Z,7.83
2023-01-15T04:02:58.597Z,7.8
2023-01-15T04:03:59.016Z,7.83
2023-01-15T04:04:58.812Z,7.88
2023-01-15T04:05:58.840Z,7.88
2023-01-15T04:06:58.286Z,7.83
2023-01-15T04:07:58.776Z,7.85
2023-01-15T04:08:58.757Z,7.89
2023-01-15T04:09:58.494Z,7.82
2023-01-15T04:10:58.493Z,7.86
2023-01-15T04:11:58.718Z,7.92
2023-01-15T04:12:58.703Z,7.96
2023-01-15T04:13:58.463Z,7.85
2023-01-15T04:14:58.421Z,7.93
2023-01-15T04:15:58.330Z,7.86
2023-01-15T04:16:58.422Z,7.92
2023-01-15T04:17:58.377Z,7.95
2023-01-15T04:18:58.347Z,7.95
2023-01-15T04:19:58.351Z,7.99
2023-01-15T04:20:58.344Z,7.93
2023-01-15T04:21:58.329Z,7.92
2023-01-15T04:22:58.298Z,7.91
2023-01-15T04:23:58.563Z,7.98
2023-01-15T04:24:58.522Z,7.95
2023-01-15T04:25:58.247Z,7.96
2023-01-15T04:26:58.494Z,7.93
2023-01-15T04:27:58.210Z,8.01
2023-01-15T04:28:58.224Z,7.99
2023-01-15T04:29:58.472Z,7.99
2023-01-15T04:30:58.077Z,8.04
2023-01-15T04:31:58.163Z,8.06
2023-01-15T04:32:58.407Z,8.06
2023-01-15T04:33:58.400Z,8.09
2023-01-15T04:34:58.122Z,8.04
2023-01-15T04:35:58.134Z,8.04
2023-01-15T04:36:58.087Z,8.04
2023-01-15T04:37:58.332Z,8.07
2023-01-15T04:38:58.324Z,8.13
2023-01-15T04:39:58.075Z,8.04
2023-01-15T04:40:58.295Z,8.01
2023-01-15T04:41:58.265Z,8.06
2023-01-15T04:42:58.045Z,8.06
2023-01-15T04:43:58.233Z,7.99
2023-01-15T04:44:58.224Z,8.13
2023-01-15T04:45:58.402Z,7.96
2023-01-15T04:46:58.210Z,7.96
2023-01-15T04:47:57.928Z,7.98
2023-01-15T04:48:57.913Z,8.06
2023-01-15T04:49:57.900Z,8.01
2023-01-15T04:50:57.627Z,8.06
2023-01-15T04:51:57.871Z,7.96
2023-01-15T04:52:57.593Z,8.01
2023-01-15T04:53:57.833Z,8.14
2023-01-15T04:54:58.133Z,8.04
2023-01-15T04:55:58.070Z,8.01
2023-01-15T04:56:58.117Z,7.99
2023-01-15T04:57:57.784Z,7.96
2023-01-15T04:58:58.057Z,7.98
2023-01-15T04:59:58.064Z,7.99
2023-01-15T05:00:58.035Z,8.06
2023-01-15T05:02:09.254Z,7.96
2023-01-15T05:02:57.986Z,7.99
2023-01-15T05:03:57.706Z,8.03
2023-01-15T05:04:58.032Z,8.04
2023-01-15T05:05:57.671Z,8.01
2023-01-15T05:06:57.958Z,8.01
2023-01-15T05:07:57.885Z,7.95
2023-01-15T05:08:57.877Z,7.95
2023-01-15T05:09:57.864Z,7.91
2023-01-15T05:10:57.611Z,7.98
2023-01-15T05:11:57.586Z,7.92
2023-01-15T05:12:57.836Z,7.99
2023-01-15T05:13:57.548Z,7.93
2023-01-15T05:14:57.530Z,7.99
2023-01-15T05:15:57.682Z,7.91
2023-01-15T05:16:57.816Z,7.95
2023-01-15T05:17:57.755Z,8.04
2023-01-15T05:18:57.756Z,7.91
2023-01-15T05:19:57.730Z,7.98
2023-01-15T05:20:57.707Z,7.98
2023-01-15T05:21:57.681Z,7.93
2023-01-15T05:22:58.152Z,7.95
2023-01-15T05:23:57.825Z,7.98
2023-01-15T05:24:57.810Z,7.98
2023-01-15T05:25:57.543Z,7.96
2023-01-15T05:26:58.002Z,7.98
2023-01-15T05:27:58.048Z,7.98
2023-01-15T05:28:57.503Z,7.99
2023-01-15T05:29:57.724Z,7.99
2023-01-15T05:30:57.882Z,8.03
2023-01-15T05:31:57.969Z,7.98
2023-01-15T05:32:57.957Z,7.98
2023-01-15T05:33:57.938Z,7.96
2023-01-15T05:34:57.925Z,8.01
2023-01-15T05:35:57.650Z,7.98
2023-01-15T05:36:57.901Z,7.95
2023-01-15T05:37:57.617Z,8.06
2023-01-15T05:38:57.339Z,7.95
2023-01-15T05:39:57.848Z,7.96
2023-01-15T05:40:57.845Z,7.95
2023-01-15T05:41:57.591Z,7.98
2023-01-15T05:42:57.825Z,7.96
2023-01-15T05:43:57.529Z,7.92
2023-01-15T05:44:57.517Z,7.99
2023-01-15T05:45:57.847Z,7.99
2023-01-15T05:46:57.770Z,7.95
2023-01-15T05:47:57.492Z,7.98
2023-01-15T05:48:57.741Z,7.91
2023-01-15T05:49:57.468Z,7.96
2023-01-15T05:50:57.428Z,7.96
2023-01-15T05:51:57.694Z,7.88
2023-01-15T05:52:57.672Z,7.98
2023-01-15T05:53:57.407Z,7.88
2023-01-15T05:54:57.383Z,7.93
2023-01-15T05:55:57.363Z,7.93
2023-01-15T05:56:57.127Z,7.91
2023-01-15T05:57:57.594Z,7.86
2023-01-15T05:58:57.568Z,7.89
2023-01-15T05:59:57.301Z,7.78
2023-01-15T06:00:57.596Z,7.83
2023-01-15T06:01:57.684Z,7.86
2023-01-15T06:02:57.546Z,7.82
2023-01-15T06:03:57.456Z,7.8
2023-01-15T06:04:57.227Z,7.77
2023-01-15T06:05:57.472Z,7.8
2023-01-15T06:06:57.468Z,7.86
2023-01-15T06:07:57.435Z,7.75
2023-01-15T06:08:57.173Z,7.82
2023-01-15T06:09:57.207Z,7.83
2023-01-15T06:10:57.155Z,7.77
2023-01-15T06:11:57.421Z,7.85
2023-01-15T06:12:56.853Z,7.78
2023-01-15T06:13:57.093Z,7.82
2023-01-15T06:14:57.084Z,7.78
2023-01-15T06:15:57.552Z,7.83
2023-01-15T06:16:56.820Z,7.75
2023-01-15T06:17:57.305Z,7.77
2023-01-15T06:18:57.025Z,7.73
2023-01-15T06:19:57.280Z,7.74
2023-01-15T06:20:57.000Z,7.74
2023-01-15T06:21:57.002Z,7.78
2023-01-15T06:22:57.212Z,7.7
2023-01-15T06:23:56.953Z,7.75
2023-01-15T06:24:56.702Z,7.63
2023-01-15T06:25:57.185Z,7.75
2023-01-15T06:26:56.913Z,7.74
2023-01-15T06:27:56.902Z,7.71
2023-01-15T06:28:57.177Z,7.75
2023-01-15T06:29:57.136Z,7.63
2023-01-15T06:30:57.154Z,7.77
2023-01-15T06:31:57.100Z,7.74
2023-01-15T06:32:56.855Z,7.74
2023-01-15T06:33:57.057Z,7.74
2023-01-15T06:34:56.530Z,7.77
2023-01-15T06:35:56.777Z,7.74
2023-01-15T06:36:56.500Z,7.74
2023-01-15T06:37:57.024Z,7.77
2023-01-15T06:38:56.739Z,7.7
2023-01-15T06:39:56.979Z,7.48
2023-01-15T06:40:56.979Z,7.37
2023-01-15T06:41:57.064Z,7.22
2023-01-15T06:42:56.791Z,7.13
2023-01-15T06:43:57.026Z,6.97
2023-01-15T06:44:57.046Z,6.83
2023-01-15T06:45:57.047Z,6.78
2023-01-15T06:46:56.879Z,6.67
2023-01-15T06:47:56.980Z,6.61
2023-01-15T06:48:56.707Z,6.58
2023-01-15T06:49:57.024Z,6.42
2023-01-15T06:50:56.961Z,6.33
2023-01-15T06:51:56.657Z,6.24
2023-01-15T06:52:56.654Z,6.17
2023-01-15T06:53:56.364Z,6.17
2023-01-15T06:54:56.743Z,6.05
2023-01-15T06:55:56.856Z,6
2023-01-15T06:56:56.599Z,6.03
2023-01-15T06:57:56.302Z,6
2023-01-15T06:58:56.797Z,5.89
2023-01-15T06:59:56.556Z,5.98
2023-01-15T07:00:56.450Z,5.91
2023-01-15T07:01:56.768Z,5.82
2023-01-15T07:02:56.497Z,5.81
2023-01-15T07:03:56.533Z,5.8
2023-01-15T07:04:56.740Z,5.82
2023-01-15T07:05:56.599Z,5.77
2023-01-15T07:06:56.576Z,5.78
2023-01-15T07:07:56.817Z,5.75
2023-01-15T07:08:56.555Z,5.77
2023-01-15T07:09:56.601Z,5.67
2023-01-15T07:10:56.496Z,5.6
2023-01-15T07:11:56.764Z,5.62
2023-01-15T07:12:56.741Z,5.63
2023-01-15T07:13:56.458Z,5.63
2023-01-15T07:14:56.685Z,5.59
2023-01-15T07:15:56.741Z,5.63
2023-01-15T07:16:56.448Z,5.59
2023-01-15T07:17:56.406Z,5.62
2023-01-15T07:18:56.370Z,5.52
2023-01-15T07:19:56.356Z,5.59
2023-01-15T07:20:56.094Z,5.55
2023-01-15T07:21:56.369Z,5.51
2023-01-15T07:22:56.554Z,5.62
2023-01-15T07:23:56.297Z,5.52
2023-01-15T07:24:56.536Z,5.51
2023-01-15T07:25:56.508Z,5.52
2023-01-15T07:26:56.246Z,5.54
2023-01-15T07:27:56.485Z,5.42
2023-01-15T07:28:56.232Z,5.48
2023-01-15T07:29:56.466Z,5.54
2023-01-15T07:30:56.424Z,5.57
2023-01-15T07:31:55.908Z,5.49
2023-01-15T07:32:56.424Z,5.59
2023-01-15T07:33:56.390Z,5.51
2023-01-15T07:34:55.854Z,5.6
2023-01-15T07:35:56.353Z,5.62
2023-01-15T07:36:56.094Z,5.6
2023-01-15T07:37:56.326Z,5.6
2023-01-15T07:38:55.773Z,5.66
2023-01-15T07:39:56.297Z,5.63
2023-01-15T07:40:56.271Z,5.64
2023-01-15T07:41:56.251Z,5.63
2023-01-15T07:42:56.258Z,5.64
2023-01-15T07:43:56.214Z,5.62
2023-01-15T07:44:55.929Z,5.66
2023-01-15T07:45:56.101Z,5.64
2023-01-15T07:46:55.655Z,5.49
2023-01-15T07:47:56.150Z,5.49
2023-01-15T07:48:56.130Z,5.66
2023-01-15T07:49:56.106Z,5.67
2023-01-15T07:50:56.105Z,5.66
2023-01-15T07:51:55.830Z,5.57
2023-01-15T07:52:57.843Z,5.59
2023-01-15T07:53:55.803Z,5.62
2023-01-15T07:54:56.040Z,5.57
2023-01-15T07:55:56.045Z,5.57
2023-01-15T07:56:55.736Z,5.62
2023-01-15T07:57:55.982Z,5.54
2023-01-15T07:58:55.978Z,5.55
2023-01-15T07:59:55.706Z,5.48
2023-01-15T08:00:55.790Z,5.48
2023-01-15T08:01:56.043Z,5.48
2023-01-15T08:02:56.038Z,5.44
2023-01-15T08:03:55.978Z,5.59
2023-01-15T08:04:55.357Z,5.46
2023-01-15T08:05:57.467Z,5.46
2023-01-15T08:06:55.580Z,5.42
2023-01-15T08:07:55.338Z,5.42
2023-01-15T08:08:55.549Z,5.37
2023-01-15T08:09:55.315Z,5.41
2023-01-15T08:10:55.510Z,5.36
2023-01-15T08:11:55.505Z,5.44
2023-01-15T08:12:57.922Z,5.48
2023-01-15T08:13:55.727Z,5.44
2023-01-15T08:14:55.450Z,5.41
2023-01-15T08:15:55.436Z,5.42
2023-01-15T08:16:55.406Z,5.44
2023-01-15T08:17:55.163Z,5.42
2023-01-15T08:18:55.373Z,5.27
2023-01-15T08:19:55.358Z,5.34
2023-01-15T08:20:55.602Z,5.3
2023-01-15T08:21:55.352Z,5.33
2023-01-15T08:22:55.627Z,5.23
2023-01-15T08:23:55.544Z,5.23
2023-01-15T08:24:55.272Z,5.23
2023-01-15T08:25:55.299Z,5.31
2023-01-15T08:26:55.281Z,5.24
2023-01-15T08:27:55.238Z,5.3
2023-01-15T08:28:55.225Z,5.3
2023-01-15T08:29:55.187Z,5.21
2023-01-15T08:30:55.453Z,5.21
2023-01-15T08:31:55.582Z,5.18
2023-01-15T08:32:55.267Z,5.18
2023-01-15T08:33:55.382Z,5.1
2023-01-15T08:34:55.399Z,5.2
2023-01-15T08:35:55.136Z,5.08
2023-01-15T08:36:55.336Z,5.1
2023-01-15T08:37:55.110Z,4.97
2023-01-15T08:38:55.327Z,4.92
2023-01-15T08:39:55.022Z,4.91
2023-01-15T08:40:55.015Z,4.75
2023-01-15T08:41:55.272Z,4.75
2023-01-15T08:42:56.726Z,4.83
2023-01-15T08:43:54.977Z,4.75
2023-01-15T08:44:55.216Z,4.79
2023-01-15T08:45:55.201Z,4.71
2023-01-15T08:46:54.930Z,4.58
2023-01-15T08:47:55.149Z,4.56
2023-01-15T08:48:54.624Z,4.64
2023-01-15T08:49:54.888Z,4.58
2023-01-15T08:50:55.137Z,4.58
2023-01-15T08:51:54.816Z,4.54
2023-01-15T08:52:55.065Z,4.51
2023-01-15T08:53:54.796Z,4.51
2023-01-15T08:54:55.068Z,4.48
2023-01-15T08:55:54.790Z,4.44
2023-01-15T08:56:55.107Z,4.54
2023-01-15T08:57:54.894Z,4.53
2023-01-15T08:58:54.789Z,4.47
2023-01-15T08:59:55.047Z,4.46
2023-01-15T09:00:55.221Z,4.48
2023-01-15T09:01:55.531Z,4.39
2023-01-15T09:02:55.334Z,4.42
2023-01-15T09:03:54.888Z,4.35
2023-01-15T09:04:55.270Z,4.36
2023-01-15T09:05:55.047Z,4.3
2023-01-15T09:06:54.791Z,4.33
2023-01-15T09:07:54.529Z,4.33
2023-01-15T09:08:54.973Z,4.39
2023-01-15T09:09:55.076Z,4.35
2023-01-15T09:10:54.689Z,4.33
2023-01-15T09:11:54.982Z,4.35
2023-01-15T09:12:54.701Z,4.38
2023-01-15T09:13:54.967Z,4.3
2023-01-15T09:15:06.233Z,4.33
2023-01-15T09:15:54.861Z,4.35
2023-01-15T09:16:54.816Z,4.3
2023-01-15T09:17:54.585Z,4.29
2023-01-15T09:18:54.283Z,4.36
2023-01-15T09:19:54.825Z,4.17
2023-01-15T09:20:54.783Z,4.26
2023-01-15T09:21:54.560Z,4.22
2023-01-15T09:22:54.735Z,4.22
2023-01-15T09:23:54.259Z,4.29
2023-01-15T09:24:54.449Z,4.28
2023-01-15T09:25:57.718Z,4.24
2023-01-15T09:26:54.406Z,4.28
2023-01-15T09:27:54.642Z,4.33
2023-01-15T09:28:54.635Z,4.35
2023-01-15T09:29:54.385Z,4.3
2023-01-15T09:30:54.551Z,4.35
2023-01-15T09:31:54.592Z,4.35
2023-01-15T09:32:54.642Z,4.28
2023-01-15T09:33:54.892Z,4.33
2023-01-15T09:34:55.176Z,4.39
2023-01-15T09:35:55.131Z,4.42
2023-01-15T09:36:54.874Z,4.38
2023-01-15T09:37:55.111Z,4.4
2023-01-15T09:38:55.065Z,4.4
2023-01-15T09:39:55.043Z,4.4
2023-01-15T09:40:55.035Z,4.5
2023-01-15T09:41:57.111Z,4.48
2023-01-15T09:42:55.027Z,4.53
2023-01-15T09:43:56.216Z,4.53
2023-01-15T09:44:54.697Z,4.48
2023-01-15T09:45:55.021Z,4.44
2023-01-15T09:46:54.910Z,4.48
2023-01-15T09:47:54.395Z,4.48
2023-01-15T09:48:54.916Z,4.5
2023-01-15T09:49:54.891Z,4.54
2023-01-15T09:50:54.407Z,4.48
2023-01-15T09:51:54.336Z,4.48
2023-01-15T09:52:54.557Z,4.53
2023-01-15T09:53:54.623Z,4.47
2023-01-15T09:54:54.778Z,4.51
2023-01-15T09:55:54.570Z,4.56
2023-01-15T09:56:54.513Z,4.56
2023-01-15T09:57:54.484Z,4.53
2023-01-15T09:58:54.782Z,4.54
2023-01-15T09:59:54.722Z,4.56
2023-01-15T10:00:54.206Z,4.47
2023-01-15T10:01:54.473Z,4.47
2023-01-15T10:02:54.715Z,4.53
2023-01-15T10:03:54.477Z,4.53
2023-01-15T10:04:54.112Z,4.51
2023-01-15T10:05:54.319Z,4.5
2023-01-15T10:06:54.356Z,4.57
2023-01-15T10:07:54.319Z,4.54
2023-01-15T10:08:54.281Z,4.51
2023-01-15T10:09:54.261Z,4.46
2023-01-15T10:10:54.235Z,4.42
2023-01-15T10:11:54.508Z,4.47
2023-01-15T10:12:54.223Z,4.48
2023-01-15T10:13:54.504Z,4.5
2023-01-15T10:14:54.428Z,4.46
2023-01-15T10:15:55.404Z,4.47
2023-01-15T10:16:54.402Z,4.36
2023-01-15T10:17:54.122Z,4.35
2023-01-15T10:18:54.138Z,4.35
2023-01-15T10:19:54.137Z,4.38
2023-01-15T10:20:54.379Z,4.33
2023-01-15T10:21:54.332Z,4.33
2023-01-15T10:22:54.070Z,4.22
2023-01-15T10:23:54.053Z,4.33
2023-01-15T10:24:54.396Z,4.28
2023-01-15T10:25:54.006Z,4.3
2023-01-15T10:26:54.222Z,4.18
2023-01-15T10:27:54.214Z,4.32
2023-01-15T10:28:54.192Z,4.18
2023-01-15T10:29:53.982Z,4.29
2023-01-15T10:30:54.296Z,4.29
2023-01-15T10:31:54.166Z,4.32
2023-01-15T10:33:06.216Z,4.28
2023-01-15T10:33:54.096Z,4.18
2023-01-15T10:34:53.855Z,4.24
2023-01-15T10:35:53.846Z,4.24
2023-01-15T10:36:54.110Z,4.2
2023-01-15T10:37:54.210Z,4.3
2023-01-15T10:38:54.202Z,4.21
2023-01-15T10:39:53.687Z,4.14
2023-01-15T10:40:54.149Z,4.14
2023-01-15T10:41:54.164Z,4.14
2023-01-15T10:42:54.150Z,4.15
2023-01-15T10:43:53.836Z,4.14
2023-01-15T10:44:54.058Z,4.1
2023-01-15T10:45:54.282Z,4.1
2023-01-15T10:46:58.490Z,4.15
2023-01-15T10:47:53.535Z,4.15
2023-01-15T10:48:53.992Z,4.17
2023-01-15T10:49:53.980Z,4.12
2023-01-15T10:50:53.718Z,4.11
2023-01-15T10:51:53.786Z,4.14
2023-01-15T10:52:53.678Z,4.1
2023-01-15T10:53:53.664Z,4.2
2023-01-15T10:54:53.900Z,4.24
2023-01-15T10:55:53.874Z,4.26
2023-01-15T10:56:53.861Z,4.3
2023-01-15T10:58:11.757Z,4.21
2023-01-15T10:58:53.578Z,4.24
2023-01-15T10:59:54.181Z,4.28
2023-01-15T11:00:54.679Z,4.2
2023-01-15T11:01:54.812Z,4.26
2023-01-15T11:02:54.778Z,4.26
2023-01-15T11:03:54.739Z,4.21
2023-01-15T11:04:54.594Z,4.22
2023-01-15T11:05:54.612Z,4.29
2023-01-15T11:06:54.324Z,4.28
2023-01-15T11:09:11.660Z,4.3
2023-01-15T11:09:21.457Z,4.3
2023-01-15T11:10:21.587Z,4.26
2023-01-15T11:11:22.009Z,4.36
2023-01-15T11:12:21.998Z,4.35
2023-01-15T11:13:21.977Z,4.29
2023-01-15T11:14:21.682Z,4.35
2023-01-15T11:15:21.672Z,4.29
2023-01-15T11:16:21.657Z,4.39
2023-01-15T11:17:21.894Z,4.4
2023-01-15T11:18:21.636Z,4.42
2023-01-15T11:19:23.134Z,4.32
2023-01-15T11:20:21.888Z,4.38
2023-01-15T11:21:21.564Z,4.36
2023-01-15T11:22:21.799Z,4.33
2023-01-15T11:23:21.568Z,4.28
2023-01-15T11:24:21.826Z,4.26
2023-01-15T11:25:21.775Z,4.15
2023-01-15T11:26:21.750Z,4.22
2023-01-15T11:27:21.720Z,4.29
2023-01-15T11:28:23.754Z,4.2
2023-01-15T11:29:21.427Z,4.18
2023-01-15T11:30:21.662Z,4.28
2023-01-15T11:31:21.512Z,4.35
2023-01-15T11:32:22.138Z,4.33
2023-01-15T11:33:22.377Z,4.3
2023-01-15T11:34:24.189Z,4.36
2023-01-15T11:35:22.088Z,4.36
2023-01-15T11:36:21.804Z,4.33
2023-01-15T11:37:22.305Z,4.33
2023-01-15T11:38:22.033Z,4.39
2023-01-15T11:39:22.006Z,4.3
2023-01-15T11:40:22.246Z,4.39
2023-01-15T11:41:22.238Z,4.32
2023-01-15T11:42:21.977Z,4.33
2023-01-15T11:43:22.230Z,4.3
2023-01-15T11:44:22.170Z,4.28
2023-01-15T11:45:22.167Z,4.36
2023-01-15T11:46:22.310Z,4.35
2023-01-15T11:47:22.158Z,4.29
2023-01-15T11:48:22.118Z,4.18
2023-01-15T11:49:22.103Z,4.28
2023-01-15T11:50:22.111Z,4.22
2023-01-15T11:51:21.841Z,4.2
2023-01-15T11:52:22.037Z,4.2
2023-01-15T11:53:23.186Z,4.3
2023-01-15T11:54:21.764Z,4.28
2023-01-15T11:55:21.741Z,4.2
2023-01-15T11:56:21.722Z,4.22
2023-01-15T11:57:21.979Z,4.24
2023-01-15T11:58:21.939Z,4.24
2023-01-15T11:59:21.972Z,4.26
2023-01-15T12:00:21.928Z,4.26
2023-01-15T12:01:22.229Z,4.36
2023-01-15T12:02:21.874Z,4.32
2023-01-15T12:03:22.040Z,4.28
2023-01-15T12:04:22.223Z,4.38
2023-01-15T12:05:21.615Z,4.35
2023-01-15T12:06:21.545Z,4.39
2023-01-15T12:07:21.527Z,4.42
2023-01-15T12:08:21.519Z,4.5
2023-01-15T12:09:21.782Z,4.57
2023-01-15T12:10:21.790Z,4.51
2023-01-15T12:11:31.258Z,4.47
2023-01-15T12:12:21.722Z,4.56
2023-01-15T12:13:21.436Z,4.51
2023-01-15T12:14:21.708Z,4.48
2023-01-15T12:15:21.661Z,4.5
2023-01-15T12:16:21.541Z,4.5
2023-01-15T12:17:21.673Z,4.48
2023-01-15T12:18:21.347Z,4.48
2023-01-15T12:19:21.368Z,4.4
2023-01-15T12:20:21.363Z,4.42
2023-01-15T12:21:21.569Z,4.36
2023-01-15T12:22:21.330Z,4.33
2023-01-15T12:23:21.554Z,4.39
2023-01-15T12:24:21.496Z,4.39
2023-01-15T12:25:21.489Z,4.47
2023-01-15T12:26:21.471Z,4.38
2023-01-15T12:27:20.991Z,4.47
2023-01-15T12:28:21.200Z,4.46
2023-01-15T12:29:20.918Z,4.44
2023-01-15T12:30:21.147Z,4.47
2023-01-15T12:31:21.640Z,4.44
2023-01-15T12:32:20.862Z,4.51
2023-01-15T12:33:21.379Z,4.39
2023-01-15T12:34:21.399Z,4.38
2023-01-15T12:35:21.354Z,4.3
2023-01-15T12:36:21.047Z,4.33
2023-01-15T12:37:21.384Z,4.3
2023-01-15T12:38:21.310Z,4.24
2023-01-15T12:39:21.017Z,4.22
2023-01-15T12:40:21.282Z,4.12
2023-01-15T12:41:20.981Z,4.08
2023-01-15T12:42:21.210Z,4.17
2023-01-15T12:43:21.207Z,4.1
2023-01-15T12:44:21.200Z,4.14
2023-01-15T12:45:21.206Z,4.1
2023-01-15T12:46:21.360Z,3.97
2023-01-15T12:47:21.124Z,4.07
2023-01-15T12:48:20.873Z,3.94
2023-01-15T12:49:20.889Z,4
2023-01-15T12:50:20.590Z,4.1
2023-01-15T12:51:22.360Z,4.07
2023-01-15T12:52:20.786Z,4.1
2023-01-15T12:53:20.792Z,4.04
2023-01-15T12:54:20.738Z,4.04
2023-01-15T12:55:21.005Z,4.08
2023-01-15T12:56:20.952Z,4.12
2023-01-15T12:57:20.990Z,4.07
2023-01-15T12:58:20.951Z,4.1
2023-01-15T12:59:21.870Z,4.15
2023-01-15T13:00:21.816Z,4.17
2023-01-15T13:01:22.213Z,4.14
2023-01-15T13:02:21.932Z,4.11
2023-01-15T13:03:21.539Z,4.14
2023-01-15T13:04:21.473Z,3.93
2023-01-15T13:05:21.849Z,3.86
2023-01-15T13:06:21.217Z,3.97
2023-01-15T13:07:21.683Z,3.93
2023-01-15T13:08:21.678Z,3.9
2023-01-15T13:09:21.652Z,3.78
2023-01-15T13:10:21.670Z,3.79
2023-01-15T13:11:21.393Z,3.81
2023-01-15T13:12:21.584Z,3.75
2023-01-15T13:13:21.588Z,3.76
2023-01-15T13:14:21.543Z,3.64
2023-01-15T13:15:21.555Z,3.67
2023-01-15T13:16:21.808Z,3.64
2023-01-15T13:17:21.290Z,3.69
2023-01-15T13:18:21.521Z,3.74
2023-01-15T13:19:21.237Z,3.66
2023-01-15T13:20:21.452Z,3.71
2023-01-15T13:21:21.191Z,3.64
2023-01-15T13:22:21.237Z,3.71
2023-01-15T13:23:21.462Z,3.74
2023-01-15T13:24:21.161Z,3.66
2023-01-15T13:25:21.408Z,3.71
2023-01-15T13:26:21.366Z,3.57
2023-01-15T13:27:21.093Z,3.6
2023-01-15T13:28:21.342Z,3.66
2023-01-15T13:29:21.102Z,3.6
2023-01-15T13:30:21.317Z,3.69
2023-01-15T13:31:20.809Z,3.64
2023-01-15T13:32:21.024Z,3.64
2023-01-15T13:33:20.770Z,3.61
2023-01-15T13:34:21.247Z,3.66
2023-01-15T13:35:20.971Z,3.57
2023-01-15T13:36:21.268Z,3.53
2023-01-15T13:37:20.678Z,3.49
2023-01-15T13:38:20.894Z,3.58